sensor_id;sensor_type;location;lat;lon;timestamp;P1;durP1;ratioP1;P2;durP2;ratioP2
25581;SDS011;13462;50.764;4.332;2022-11-20T00:02:13;120.07;;;45.97;;
25581;SDS011;13462;50.764;4.332;2022-11-20T00:04:59;129.43;;;46.45;;
25581;SDS011;13462;50.764;4.332;2022-11-20T00:07:46;119.63;;;43.75;;
25581;SDS011;13462;50.764;4.332;2022-11-20T00:10:30;104.80;;;42.13;;
25581;SDS011;13462;50.764;4.332;2022-11-20T00:13:46;115.15;;;40.58;;
25581;SDS011;13462;50.764;4.332;2022-11-20T00:16:15;108.05;;;43.13;;
25581;SDS011;13462;50.764;4.332;2022-11-20T00:18:42;129.18;;;45.88;;
25581;SDS011;13462;50.764;4.332;2022-11-20T00:21:16;146.70;;;48.67;;
25581;SDS011;13462;50.764;4.332;2022-11-20T00:23:50;124.33;;;45.00;;
25581;SDS011;13462;50.764;4.332;2022-11-20T00:26:23;240.10;;;55.08;;
25581;SDS011;13462;50.764;4.332;2022-11-20T00:28:59;158.52;;;50.22;;
25581;SDS011;13462;50.764;4.332;2022-11-20T00:31:38;186.80;;;49.03;;
25581;SDS011;13462;50.764;4.332;2022-11-20T00:34:04;177.73;;;48.85;;
25581;SDS011;13462;50.764;4.332;2022-11-20T00:36:31;196.15;;;49.63;;
25581;SDS011;13462;50.764;4.332;2022-11-20T00:38:58;173.73;;;53.00;;
25581;SDS011;13462;50.764;4.332;2022-11-20T00:41:24;160.27;;;50.97;;
25581;SDS011;13462;50.764;4.332;2022-11-20T00:43:52;147.65;;;47.67;;
25581;SDS011;13462;50.764;4.332;2022-11-20T00:46:19;231.57;;;52.78;;
25581;SDS011;13462;50.764;4.332;2022-11-20T00:48:47;238.82;;;53.20;;
25581;SDS011;13462;50.764;4.332;2022-11-20T00:51:17;220.45;;;55.50;;
25581;SDS011;13462;50.764;4.332;2022-11-20T00:53:46;142.82;;;48.25;;
25581;SDS011;13462;50.764;4.332;2022-11-20T00:56:35;265.92;;;51.60;;
25581;SDS011;13462;50.764;4.332;2022-11-20T00:59:01;154.88;;;49.83;;
25581;SDS011;13462;50.764;4.332;2022-11-20T01:01:26;157.27;;;47.72;;
25581;SDS011;13462;50.764;4.332;2022-11-20T01:03:55;121.55;;;45.95;;
25581;SDS011;13462;50.764;4.332;2022-11-20T01:06:22;130.95;;;46.67;;
25581;SDS011;13462;50.764;4.332;2022-11-20T01:08:53;105.35;;;44.25;;
25581;SDS011;13462;50.764;4.332;2022-11-20T01:11:24;133.85;;;46.72;;
25581;SDS011;13462;50.764;4.332;2022-11-20T01:13:56;126.15;;;44.88;;
25581;SDS011;13462;50.764;4.332;2022-11-20T01:16:24;117.85;;;44.15;;
25581;SDS011;13462;50.764;4.332;2022-11-20T01:19:02;117.70;;;44.17;;
25581;SDS011;13462;50.764;4.332;2022-11-20T01:21:31;118.18;;;44.53;;
25581;SDS011;13462;50.764;4.332;2022-11-20T01:24:01;129.40;;;45.35;;
25581;SDS011;13462;50.764;4.332;2022-11-20T01:27:12;135.93;;;46.25;;
25581;SDS011;13462;50.764;4.332;2022-11-20T01:29:38;126.18;;;46.55;;
25581;SDS011;13462;50.764;4.332;2022-11-20T01:32:04;135.85;;;45.60;;
25581;SDS011;13462;50.764;4.332;2022-11-20T01:34:30;118.82;;;41.50;;
25581;SDS011;13462;50.764;4.332;2022-11-20T01:36:56;132.73;;;44.08;;
25581;SDS011;13462;50.764;4.332;2022-11-20T01:39:24;127.75;;;44.08;;
25581;SDS011;13462;50.764;4.332;2022-11-20T01:42:29;124.47;;;44.15;;
25581;SDS011;13462;50.764;4.332;2022-11-20T01:56:10;149.05;;;45.08;;
25581;SDS011;13462;50.764;4.332;2022-11-20T02:22:48;116.93;;;40.75;;
25581;SDS011;13462;50.764;4.332;2022-11-20T02:25:20;114.07;;;40.00;;
25581;SDS011;13462;50.764;4.332;2022-11-20T02:27:52;123.80;;;42.60;;
25581;SDS011;13462;50.764;4.332;2022-11-20T02:37:21;106.03;;;34.00;;
25581;SDS011;13462;50.764;4.332;2022-11-20T02:40:41;92.90;;;34.55;;
25581;SDS011;13462;50.764;4.332;2022-11-20T02:50:23;103.22;;;37.15;;
25581;SDS011;13462;50.764;4.332;2022-11-20T03:02:35;90.93;;;33.15;;
25581;SDS011;13462;50.764;4.332;2022-11-20T03:15:35;93.22;;;33.95;;
25581;SDS011;13462;50.764;4.332;2022-11-20T03:18:13;92.43;;;33.80;;
25581;SDS011;13462;50.764;4.332;2022-11-20T04:01:41;79.38;;;30.40;;
25581;SDS011;13462;50.764;4.332;2022-11-20T04:07:50;84.55;;;32.13;;
25581;SDS011;13462;50.764;4.332;2022-11-20T04:13:51;88.27;;;32.70;;
25581;SDS011;13462;50.764;4.332;2022-11-20T04:26:27;100.57;;;33.15;;
25581;SDS011;13462;50.764;4.332;2022-11-20T04:28:55;108.97;;;35.50;;
25581;SDS011;13462;50.764;4.332;2022-11-20T04:31:22;109.85;;;36.40;;
25581;SDS011;13462;50.764;4.332;2022-11-20T04:33:52;99.90;;;35.67;;
25581;SDS011;13462;50.764;4.332;2022-11-20T04:36:22;108.10;;;36.25;;
25581;SDS011;13462;50.764;4.332;2022-11-20T04:39:11;118.82;;;37.10;;
25581;SDS011;13462;50.764;4.332;2022-11-20T04:41:59;113.07;;;34.50;;
25581;SDS011;13462;50.764;4.332;2022-11-20T04:44:43;127.32;;;38.22;;
25581;SDS011;13462;50.764;4.332;2022-11-20T04:47:09;128.38;;;40.05;;
25581;SDS011;13462;50.764;4.332;2022-11-20T04:49:38;121.03;;;36.55;;
25581;SDS011;13462;50.764;4.332;2022-11-20T04:52:03;130.10;;;38.13;;
25581;SDS011;13462;50.764;4.332;2022-11-20T04:57:05;131.98;;;38.80;;
25581;SDS011;13462;50.764;4.332;2022-11-20T04:59:44;154.80;;;42.15;;
25581;SDS011;13462;50.764;4.332;2022-11-20T05:02:12;130.18;;;37.60;;
25581;SDS011;13462;50.764;4.332;2022-11-20T05:04:43;143.77;;;40.90;;
25581;SDS011;13462;50.764;4.332;2022-11-20T05:07:08;127.65;;;38.90;;
25581;SDS011;13462;50.764;4.332;2022-11-20T05:09:37;147.30;;;39.97;;
25581;SDS011;13462;50.764;4.332;2022-11-20T05:12:03;141.18;;;39.28;;
25581;SDS011;13462;50.764;4.332;2022-11-20T05:14:29;128.80;;;38.20;;
25581;SDS011;13462;50.764;4.332;2022-11-20T05:16:55;142.63;;;39.42;;
25581;SDS011;13462;50.764;4.332;2022-11-20T05:19:23;141.88;;;38.20;;
25581;SDS011;13462;50.764;4.332;2022-11-20T05:21:52;136.68;;;39.33;;
25581;SDS011;13462;50.764;4.332;2022-11-20T05:24:40;159.05;;;37.85;;
25581;SDS011;13462;50.764;4.332;2022-11-20T05:27:14;136.95;;;38.00;;
25581;SDS011;13462;50.764;4.332;2022-11-20T05:29:40;143.73;;;43.05;;
25581;SDS011;13462;50.764;4.332;2022-11-20T05:32:15;157.35;;;41.50;;
25581;SDS011;13462;50.764;4.332;2022-11-20T05:34:52;151.90;;;40.33;;
25581;SDS011;13462;50.764;4.332;2022-11-20T05:37:23;157.57;;;40.45;;
25581;SDS011;13462;50.764;4.332;2022-11-20T05:39:49;154.93;;;41.72;;
25581;SDS011;13462;50.764;4.332;2022-11-20T05:42:18;161.75;;;42.83;;
25581;SDS011;13462;50.764;4.332;2022-11-20T05:44:56;154.00;;;41.03;;
25581;SDS011;13462;50.764;4.332;2022-11-20T05:47:27;146.60;;;41.53;;
25581;SDS011;13462;50.764;4.332;2022-11-20T05:49:56;152.18;;;42.10;;
25581;SDS011;13462;50.764;4.332;2022-11-20T05:52:22;163.52;;;44.03;;
25581;SDS011;13462;50.764;4.332;2022-11-20T05:54:48;154.98;;;42.17;;
25581;SDS011;13462;50.764;4.332;2022-11-20T05:57:13;163.65;;;43.97;;
25581;SDS011;13462;50.764;4.332;2022-11-20T05:59:39;152.90;;;41.20;;
25581;SDS011;13462;50.764;4.332;2022-11-20T06:02:05;129.63;;;39.38;;
25581;SDS011;13462;50.764;4.332;2022-11-20T06:04:31;151.10;;;39.35;;
25581;SDS011;13462;50.764;4.332;2022-11-20T06:06:56;143.65;;;41.00;;
25581;SDS011;13462;50.764;4.332;2022-11-20T06:09:22;150.85;;;42.50;;
25581;SDS011;13462;50.764;4.332;2022-11-20T06:11:48;147.88;;;40.47;;
25581;SDS011;13462;50.764;4.332;2022-11-20T06:14:14;118.20;;;39.95;;
25581;SDS011;13462;50.764;4.332;2022-11-20T06:16:39;137.27;;;40.17;;
25581;SDS011;13462;50.764;4.332;2022-11-20T06:19:05;146.23;;;40.72;;
25581;SDS011;13462;50.764;4.332;2022-11-20T06:21:41;146.48;;;44.10;;
25581;SDS011;13462;50.764;4.332;2022-11-20T06:24:08;149.70;;;41.58;;
25581;SDS011;13462;50.764;4.332;2022-11-20T06:26:35;153.00;;;39.95;;
25581;SDS011;13462;50.764;4.332;2022-11-20T06:29:01;131.68;;;39.70;;
25581;SDS011;13462;50.764;4.332;2022-11-20T06:31:27;131.52;;;39.05;;
25581;SDS011;13462;50.764;4.332;2022-11-20T06:33:53;138.07;;;38.25;;
25581;SDS011;13462;50.764;4.332;2022-11-20T06:36:20;136.80;;;42.28;;
25581;SDS011;13462;50.764;4.332;2022-11-20T06:38:47;155.75;;;41.53;;
25581;SDS011;13462;50.764;4.332;2022-11-20T06:41:14;132.10;;;37.45;;
25581;SDS011;13462;50.764;4.332;2022-11-20T06:43:44;138.32;;;39.38;;
25581;SDS011;13462;50.764;4.332;2022-11-20T06:46:11;140.50;;;37.67;;
25581;SDS011;13462;50.764;4.332;2022-11-20T06:48:38;138.55;;;39.03;;
25581;SDS011;13462;50.764;4.332;2022-11-20T06:51:04;125.13;;;38.10;;
25581;SDS011;13462;50.764;4.332;2022-11-20T06:53:31;133.57;;;40.10;;
25581;SDS011;13462;50.764;4.332;2022-11-20T06:55:57;126.00;;;38.17;;
25581;SDS011;13462;50.764;4.332;2022-11-20T07:01:16;133.75;;;38.58;;
25581;SDS011;13462;50.764;4.332;2022-11-20T07:03:42;125.15;;;38.92;;
25581;SDS011;13462;50.764;4.332;2022-11-20T07:06:08;125.47;;;37.53;;
25581;SDS011;13462;50.764;4.332;2022-11-20T07:08:34;130.52;;;39.20;;
25581;SDS011;13462;50.764;4.332;2022-11-20T07:11:02;135.60;;;37.90;;
25581;SDS011;13462;50.764;4.332;2022-11-20T07:13:29;125.30;;;38.72;;
25581;SDS011;13462;50.764;4.332;2022-11-20T07:15:59;146.65;;;40.72;;
25581;SDS011;13462;50.764;4.332;2022-11-20T07:18:26;138.32;;;39.75;;
25581;SDS011;13462;50.764;4.332;2022-11-20T07:20:52;152.27;;;40.95;;
25581;SDS011;13462;50.764;4.332;2022-11-20T07:23:18;143.75;;;40.00;;
25581;SDS011;13462;50.764;4.332;2022-11-20T07:25:44;152.35;;;40.70;;
25581;SDS011;13462;50.764;4.332;2022-11-20T07:28:10;139.13;;;43.53;;
25581;SDS011;13462;50.764;4.332;2022-11-20T07:30:35;139.73;;;38.38;;
25581;SDS011;13462;50.764;4.332;2022-11-20T07:33:01;143.10;;;40.60;;
25581;SDS011;13462;50.764;4.332;2022-11-20T07:35:27;140.43;;;40.40;;
25581;SDS011;13462;50.764;4.332;2022-11-20T07:37:53;144.10;;;39.58;;
25581;SDS011;13462;50.764;4.332;2022-11-20T07:40:19;155.32;;;40.85;;
25581;SDS011;13462;50.764;4.332;2022-11-20T07:42:52;156.65;;;39.33;;
25581;SDS011;13462;50.764;4.332;2022-11-20T07:45:22;142.95;;;38.30;;
25581;SDS011;13462;50.764;4.332;2022-11-20T07:47:50;125.43;;;35.10;;
25581;SDS011;13462;50.764;4.332;2022-11-20T07:50:31;155.05;;;40.92;;
25581;SDS011;13462;50.764;4.332;2022-11-20T07:55:46;148.30;;;39.70;;
25581;SDS011;13462;50.764;4.332;2022-11-20T08:00:55;148.32;;;39.63;;
25581;SDS011;13462;50.764;4.332;2022-11-20T08:03:24;151.73;;;39.38;;
25581;SDS011;13462;50.764;4.332;2022-11-20T08:05:53;152.40;;;40.10;;
25581;SDS011;13462;50.764;4.332;2022-11-20T08:08:23;150.40;;;40.80;;
25581;SDS011;13462;50.764;4.332;2022-11-20T08:10:49;146.95;;;40.67;;
25581;SDS011;13462;50.764;4.332;2022-11-20T08:13:15;159.65;;;41.17;;
25581;SDS011;13462;50.764;4.332;2022-11-20T08:16:09;144.73;;;39.35;;
25581;SDS011;13462;50.764;4.332;2022-11-20T08:18:35;143.98;;;38.30;;
25581;SDS011;13462;50.764;4.332;2022-11-20T08:21:01;140.27;;;40.58;;
25581;SDS011;13462;50.764;4.332;2022-11-20T08:23:28;146.50;;;38.53;;
25581;SDS011;13462;50.764;4.332;2022-11-20T08:26:04;137.25;;;39.67;;
25581;SDS011;13462;50.764;4.332;2022-11-20T08:28:30;147.20;;;40.28;;
25581;SDS011;13462;50.764;4.332;2022-11-20T08:31:12;123.93;;;36.92;;
25581;SDS011;13462;50.764;4.332;2022-11-20T08:33:59;136.10;;;37.42;;
25581;SDS011;13462;50.764;4.332;2022-11-20T08:39:24;121.13;;;35.25;;
25581;SDS011;13462;50.764;4.332;2022-11-20T08:41:58;117.65;;;37.25;;
25581;SDS011;13462;50.764;4.332;2022-11-20T08:44:29;129.02;;;37.00;;
25581;SDS011;13462;50.764;4.332;2022-11-20T08:46:55;114.18;;;36.83;;
25581;SDS011;13462;50.764;4.332;2022-11-20T08:58:59;99.18;;;35.20;;
25581;SDS011;13462;50.764;4.332;2022-11-20T09:01:25;89.10;;;32.47;;
25581;SDS011;13462;50.764;4.332;2022-11-20T09:03:52;92.75;;;32.88;;
25581;SDS011;13462;50.764;4.332;2022-11-20T09:06:22;92.53;;;33.75;;
25581;SDS011;13462;50.764;4.332;2022-11-20T09:08:51;85.40;;;31.73;;
25581;SDS011;13462;50.764;4.332;2022-11-20T09:11:49;73.97;;;30.65;;
25581;SDS011;13462;50.764;4.332;2022-11-20T09:14:15;74.57;;;29.95;;
25581;SDS011;13462;50.764;4.332;2022-11-20T09:16:41;70.28;;;28.13;;
25581;SDS011;13462;50.764;4.332;2022-11-20T09:19:07;65.57;;;29.45;;
25581;SDS011;13462;50.764;4.332;2022-11-20T09:21:35;62.65;;;26.85;;
25581;SDS011;13462;50.764;4.332;2022-11-20T09:24:04;62.80;;;28.13;;
25581;SDS011;13462;50.764;4.332;2022-11-20T09:26:30;60.70;;;25.50;;
25581;SDS011;13462;50.764;4.332;2022-11-20T09:28:56;56.00;;;23.30;;
25581;SDS011;13462;50.764;4.332;2022-11-20T09:31:25;55.72;;;22.05;;
25581;SDS011;13462;50.764;4.332;2022-11-20T09:33:51;46.90;;;22.52;;
25581;SDS011;13462;50.764;4.332;2022-11-20T09:36:20;55.40;;;22.65;;
25581;SDS011;13462;50.764;4.332;2022-11-20T09:38:45;44.10;;;19.33;;
25581;SDS011;13462;50.764;4.332;2022-11-20T09:41:25;42.08;;;20.13;;
25581;SDS011;13462;50.764;4.332;2022-11-20T09:55:37;34.33;;;15.45;;
25581;SDS011;13462;50.764;4.332;2022-11-20T09:58:07;32.47;;;15.63;;
25581;SDS011;13462;50.764;4.332;2022-11-20T10:01:17;27.90;;;12.82;;
25581;SDS011;13462;50.764;4.332;2022-11-20T10:11:31;28.65;;;14.18;;
25581;SDS011;13462;50.764;4.332;2022-11-20T10:14:48;24.38;;;11.75;;
25581;SDS011;13462;50.764;4.332;2022-11-20T10:24:57;14.00;;;8.68;;
25581;SDS011;13462;50.764;4.332;2022-11-20T10:27:52;19.92;;;9.25;;
25581;SDS011;13462;50.764;4.332;2022-11-20T10:30:27;23.55;;;10.25;;
25581;SDS011;13462;50.764;4.332;2022-11-20T10:32:56;12.30;;;8.20;;
25581;SDS011;13462;50.764;4.332;2022-11-20T10:35:41;15.40;;;8.25;;
25581;SDS011;13462;50.764;4.332;2022-11-20T10:38:14;12.10;;;7.22;;
25581;SDS011;13462;50.764;4.332;2022-11-20T10:40:46;10.57;;;6.30;;
25581;SDS011;13462;50.764;4.332;2022-11-20T10:43:22;12.10;;;5.72;;
25581;SDS011;13462;50.764;4.332;2022-11-20T10:48:30;12.05;;;6.15;;
25581;SDS011;13462;50.764;4.332;2022-11-20T10:53:56;12.65;;;5.45;;
25581;SDS011;13462;50.764;4.332;2022-11-20T10:56:38;7.07;;;5.43;;
25581;SDS011;13462;50.764;4.332;2022-11-20T11:01:53;16.30;;;7.13;;
25581;SDS011;13462;50.764;4.332;2022-11-20T11:06:54;16.10;;;5.63;;
25581;SDS011;13462;50.764;4.332;2022-11-20T11:09:33;15.13;;;5.10;;
25581;SDS011;13462;50.764;4.332;2022-11-20T11:12:08;10.50;;;4.97;;
25581;SDS011;13462;50.764;4.332;2022-11-20T11:14:44;7.75;;;5.35;;
25581;SDS011;13462;50.764;4.332;2022-11-20T11:17:20;11.50;;;5.70;;
25581;SDS011;13462;50.764;4.332;2022-11-20T11:19:58;9.02;;;4.97;;
25581;SDS011;13462;50.764;4.332;2022-11-20T11:22:25;11.55;;;4.53;;
25581;SDS011;13462;50.764;4.332;2022-11-20T11:27:22;11.15;;;5.78;;
25581;SDS011;13462;50.764;4.332;2022-11-20T11:29:48;9.13;;;5.05;;
25581;SDS011;13462;50.764;4.332;2022-11-20T11:34:40;13.25;;;5.18;;
25581;SDS011;13462;50.764;4.332;2022-11-20T11:37:13;8.07;;;5.03;;
25581;SDS011;13462;50.764;4.332;2022-11-20T11:39:43;13.27;;;5.00;;
25581;SDS011;13462;50.764;4.332;2022-11-20T11:42:12;7.93;;;4.57;;
25581;SDS011;13462;50.764;4.332;2022-11-20T11:44:44;11.23;;;4.95;;
25581;SDS011;13462;50.764;4.332;2022-11-20T11:47:35;8.88;;;4.93;;
25581;SDS011;13462;50.764;4.332;2022-11-20T11:55:37;16.27;;;5.37;;
25581;SDS011;13462;50.764;4.332;2022-11-20T12:03:42;11.70;;;4.45;;
25581;SDS011;13462;50.764;4.332;2022-11-20T12:06:14;12.38;;;4.65;;
25581;SDS011;13462;50.764;4.332;2022-11-20T12:08:46;12.75;;;4.50;;
25581;SDS011;13462;50.764;4.332;2022-11-20T12:14:29;10.52;;;4.55;;
25581;SDS011;13462;50.764;4.332;2022-11-20T12:17:00;13.73;;;5.90;;
25581;SDS011;13462;50.764;4.332;2022-11-20T12:19:33;12.55;;;5.00;;
25581;SDS011;13462;50.764;4.332;2022-11-20T12:25:41;9.05;;;4.78;;
25581;SDS011;13462;50.764;4.332;2022-11-20T12:39:38;17.35;;;5.57;;
25581;SDS011;13462;50.764;4.332;2022-11-20T13:08:00;18.85;;;9.52;;
25581;SDS011;13462;50.764;4.332;2022-11-20T13:10:37;9.73;;;6.10;;
25581;SDS011;13462;50.764;4.332;2022-11-20T13:13:13;13.55;;;7.25;;
25581;SDS011;13462;50.764;4.332;2022-11-20T13:15:54;8.88;;;6.20;;
25581;SDS011;13462;50.764;4.332;2022-11-20T13:18:31;10.00;;;6.60;;
25581;SDS011;13462;50.764;4.332;2022-11-20T13:21:17;12.00;;;7.07;;
25581;SDS011;13462;50.764;4.332;2022-11-20T13:23:46;13.20;;;8.25;;
25581;SDS011;13462;50.764;4.332;2022-11-20T13:26:16;9.68;;;7.20;;
25581;SDS011;13462;50.764;4.332;2022-11-20T13:28:45;9.82;;;7.00;;
25581;SDS011;13462;50.764;4.332;2022-11-20T13:31:46;10.50;;;7.03;;
25581;SDS011;13462;50.764;4.332;2022-11-20T13:34:09;12.45;;;6.88;;
25581;SDS011;13462;50.764;4.332;2022-11-20T13:36:38;9.18;;;6.80;;
25581;SDS011;13462;50.764;4.332;2022-11-20T13:39:23;11.10;;;7.03;;
25581;SDS011;13462;50.764;4.332;2022-11-20T13:41:56;12.25;;;6.72;;
25581;SDS011;13462;50.764;4.332;2022-11-20T13:44:25;10.85;;;8.13;;
25581;SDS011;13462;50.764;4.332;2022-11-20T13:47:00;15.25;;;9.00;;
25581;SDS011;13462;50.764;4.332;2022-11-20T13:49:30;7.75;;;6.03;;
25581;SDS011;13462;50.764;4.332;2022-11-20T13:57:56;8.43;;;4.90;;
25581;SDS011;13462;50.764;4.332;2022-11-20T14:00:28;7.22;;;4.60;;
25581;SDS011;13462;50.764;4.332;2022-11-20T14:05:34;14.00;;;7.28;;
25581;SDS011;13462;50.764;4.332;2022-11-20T14:08:03;11.35;;;7.70;;
25581;SDS011;13462;50.764;4.332;2022-11-20T14:10:37;11.38;;;5.50;;
25581;SDS011;13462;50.764;4.332;2022-11-20T14:13:10;12.45;;;6.28;;
25581;SDS011;13462;50.764;4.332;2022-11-20T14:16:02;11.02;;;6.10;;
25581;SDS011;13462;50.764;4.332;2022-11-20T14:18:28;8.07;;;5.05;;
25581;SDS011;13462;50.764;4.332;2022-11-20T14:20:59;10.35;;;5.70;;
25581;SDS011;13462;50.764;4.332;2022-11-20T14:23:27;11.23;;;6.10;;
25581;SDS011;13462;50.764;4.332;2022-11-20T14:25:56;7.97;;;4.80;;
25581;SDS011;13462;50.764;4.332;2022-11-20T14:28:29;19.33;;;10.00;;
25581;SDS011;13462;50.764;4.332;2022-11-20T14:30:56;10.57;;;5.38;;
25581;SDS011;13462;50.764;4.332;2022-11-20T14:33:23;24.40;;;8.45;;
25581;SDS011;13462;50.764;4.332;2022-11-20T14:35:52;9.02;;;5.15;;
25581;SDS011;13462;50.764;4.332;2022-11-20T14:38:29;17.20;;;6.85;;
25581;SDS011;13462;50.764;4.332;2022-11-20T14:44:08;12.70;;;5.45;;
25581;SDS011;13462;50.764;4.332;2022-11-20T14:46:37;14.85;;;6.30;;
25581;SDS011;13462;50.764;4.332;2022-11-20T14:49:03;12.68;;;7.15;;
25581;SDS011;13462;50.764;4.332;2022-11-20T14:51:33;12.30;;;5.90;;
25581;SDS011;13462;50.764;4.332;2022-11-20T14:57:04;11.15;;;5.07;;
25581;SDS011;13462;50.764;4.332;2022-11-20T14:59:31;15.10;;;10.65;;
25581;SDS011;13462;50.764;4.332;2022-11-20T15:02:31;25.90;;;16.52;;
25581;SDS011;13462;50.764;4.332;2022-11-20T15:07:25;9.35;;;6.13;;
25581;SDS011;13462;50.764;4.332;2022-11-20T15:09:59;14.52;;;8.82;;
25581;SDS011;13462;50.764;4.332;2022-11-20T15:12:25;27.00;;;14.77;;
25581;SDS011;13462;50.764;4.332;2022-11-20T15:14:51;19.35;;;12.60;;
25581;SDS011;13462;50.764;4.332;2022-11-20T15:17:16;13.40;;;9.50;;
25581;SDS011;13462;50.764;4.332;2022-11-20T15:19:42;17.20;;;11.60;;
25581;SDS011;13462;50.764;4.332;2022-11-20T15:22:11;10.07;;;5.97;;
25581;SDS011;13462;50.764;4.332;2022-11-20T15:24:44;24.20;;;18.48;;
25581;SDS011;13462;50.764;4.332;2022-11-20T15:27:10;15.73;;;12.05;;
25581;SDS011;13462;50.764;4.332;2022-11-20T15:29:36;17.65;;;12.95;;
25581;SDS011;13462;50.764;4.332;2022-11-20T15:32:01;11.10;;;5.90;;
25581;SDS011;13462;50.764;4.332;2022-11-20T15:34:27;43.38;;;26.40;;
25581;SDS011;13462;50.764;4.332;2022-11-20T15:36:53;22.75;;;16.20;;
25581;SDS011;13462;50.764;4.332;2022-11-20T15:39:19;14.48;;;7.10;;
25581;SDS011;13462;50.764;4.332;2022-11-20T15:41:45;10.98;;;6.93;;
25581;SDS011;13462;50.764;4.332;2022-11-20T15:44:14;14.98;;;7.63;;
25581;SDS011;13462;50.764;4.332;2022-11-20T15:46:40;22.20;;;13.85;;
25581;SDS011;13462;50.764;4.332;2022-11-20T15:49:11;14.63;;;10.48;;
25581;SDS011;13462;50.764;4.332;2022-11-20T15:51:47;16.00;;;9.38;;
25581;SDS011;13462;50.764;4.332;2022-11-20T15:54:18;11.68;;;6.60;;
25581;SDS011;13462;50.764;4.332;2022-11-20T15:56:54;18.55;;;7.53;;
25581;SDS011;13462;50.764;4.332;2022-11-20T15:59:20;13.30;;;5.88;;
25581;SDS011;13462;50.764;4.332;2022-11-20T16:01:45;13.52;;;7.63;;
25581;SDS011;13462;50.764;4.332;2022-11-20T16:04:12;13.32;;;7.80;;
25581;SDS011;13462;50.764;4.332;2022-11-20T16:06:39;13.63;;;6.13;;
25581;SDS011;13462;50.764;4.332;2022-11-20T16:09:06;14.63;;;5.85;;
25581;SDS011;13462;50.764;4.332;2022-11-20T16:11:32;11.95;;;5.45;;
25581;SDS011;13462;50.764;4.332;2022-11-20T16:13:58;14.38;;;5.45;;
25581;SDS011;13462;50.764;4.332;2022-11-20T16:16:42;14.55;;;7.13;;
25581;SDS011;13462;50.764;4.332;2022-11-20T16:19:12;12.02;;;6.47;;
25581;SDS011;13462;50.764;4.332;2022-11-20T16:21:38;15.20;;;7.63;;
25581;SDS011;13462;50.764;4.332;2022-11-20T16:24:06;15.27;;;8.13;;
25581;SDS011;13462;50.764;4.332;2022-11-20T16:26:34;14.73;;;6.60;;
25581;SDS011;13462;50.764;4.332;2022-11-20T16:29:01;20.42;;;6.35;;
25581;SDS011;13462;50.764;4.332;2022-11-20T16:31:27;15.05;;;7.78;;
25581;SDS011;13462;50.764;4.332;2022-11-20T16:33:57;18.52;;;7.90;;
25581;SDS011;13462;50.764;4.332;2022-11-20T16:36:24;15.45;;;6.88;;
25581;SDS011;13462;50.764;4.332;2022-11-20T16:38:56;18.45;;;6.00;;
25581;SDS011;13462;50.764;4.332;2022-11-20T16:41:24;16.52;;;7.38;;
25581;SDS011;13462;50.764;4.332;2022-11-20T16:43:54;31.88;;;14.23;;
25581;SDS011;13462;50.764;4.332;2022-11-20T16:46:22;15.63;;;6.68;;
25581;SDS011;13462;50.764;4.332;2022-11-20T16:48:56;16.33;;;6.53;;
25581;SDS011;13462;50.764;4.332;2022-11-20T16:51:23;27.10;;;6.80;;
25581;SDS011;13462;50.764;4.332;2022-11-20T16:53:50;16.17;;;7.07;;
25581;SDS011;13462;50.764;4.332;2022-11-20T16:56:17;17.50;;;6.43;;
25581;SDS011;13462;50.764;4.332;2022-11-20T16:58:44;21.25;;;5.93;;
25581;SDS011;13462;50.764;4.332;2022-11-20T17:01:12;24.30;;;6.28;;
25581;SDS011;13462;50.764;4.332;2022-11-20T17:03:39;18.35;;;6.65;;
25581;SDS011;13462;50.764;4.332;2022-11-20T17:06:13;20.02;;;6.00;;
25581;SDS011;13462;50.764;4.332;2022-11-20T17:08:40;25.30;;;6.47;;
25581;SDS011;13462;50.764;4.332;2022-11-20T17:11:07;23.17;;;5.40;;
25581;SDS011;13462;50.764;4.332;2022-11-20T17:13:34;23.17;;;5.68;;
25581;SDS011;13462;50.764;4.332;2022-11-20T17:16:01;17.08;;;6.13;;
25581;SDS011;13462;50.764;4.332;2022-11-20T17:18:28;26.20;;;6.32;;
25581;SDS011;13462;50.764;4.332;2022-11-20T17:20:54;23.85;;;6.57;;
25581;SDS011;13462;50.764;4.332;2022-11-20T17:23:19;20.45;;;6.35;;
25581;SDS011;13462;50.764;4.332;2022-11-20T17:25:45;24.55;;;5.57;;
25581;SDS011;13462;50.764;4.332;2022-11-20T17:28:10;24.15;;;6.85;;
25581;SDS011;13462;50.764;4.332;2022-11-20T17:30:36;17.48;;;5.85;;
25581;SDS011;13462;50.764;4.332;2022-11-20T17:33:01;25.20;;;5.90;;
25581;SDS011;13462;50.764;4.332;2022-11-20T17:35:27;26.70;;;6.35;;
25581;SDS011;13462;50.764;4.332;2022-11-20T17:37:53;21.27;;;6.43;;
25581;SDS011;13462;50.764;4.332;2022-11-20T17:40:18;22.20;;;7.63;;
25581;SDS011;13462;50.764;4.332;2022-11-20T17:42:44;15.80;;;7.32;;
25581;SDS011;13462;50.764;4.332;2022-11-20T17:45:09;19.65;;;6.30;;
25581;SDS011;13462;50.764;4.332;2022-11-20T17:47:35;17.83;;;6.50;;
25581;SDS011;13462;50.764;4.332;2022-11-20T17:50:01;19.52;;;7.05;;
25581;SDS011;13462;50.764;4.332;2022-11-20T17:52:27;23.75;;;7.03;;
25581;SDS011;13462;50.764;4.332;2022-11-20T17:54:53;19.85;;;5.97;;
25581;SDS011;13462;50.764;4.332;2022-11-20T17:57:20;27.65;;;7.53;;
25581;SDS011;13462;50.764;4.332;2022-11-20T18:00:05;16.58;;;6.85;;
25581;SDS011;13462;50.764;4.332;2022-11-20T18:02:31;19.60;;;8.77;;
25581;SDS011;13462;50.764;4.332;2022-11-20T18:04:57;25.52;;;7.07;;
25581;SDS011;13462;50.764;4.332;2022-11-20T18:07:22;30.92;;;15.10;;
25581;SDS011;13462;50.764;4.332;2022-11-20T18:09:48;32.83;;;13.45;;
25581;SDS011;13462;50.764;4.332;2022-11-20T18:12:14;31.15;;;16.77;;
25581;SDS011;13462;50.764;4.332;2022-11-20T18:14:40;29.80;;;6.55;;
25581;SDS011;13462;50.764;4.332;2022-11-20T18:17:08;22.38;;;8.13;;
25581;SDS011;13462;50.764;4.332;2022-11-20T18:19:38;37.70;;;20.08;;
25581;SDS011;13462;50.764;4.332;2022-11-20T18:22:05;26.63;;;7.80;;
25581;SDS011;13462;50.764;4.332;2022-11-20T18:24:32;29.45;;;9.10;;
25581;SDS011;13462;50.764;4.332;2022-11-20T18:27:03;26.25;;;6.97;;
25581;SDS011;13462;50.764;4.332;2022-11-20T18:29:30;29.75;;;6.43;;
25581;SDS011;13462;50.764;4.332;2022-11-20T18:31:57;22.45;;;5.93;;
25581;SDS011;13462;50.764;4.332;2022-11-20T18:34:23;27.00;;;8.18;;
25581;SDS011;13462;50.764;4.332;2022-11-20T18:36:49;30.30;;;12.95;;
25581;SDS011;13462;50.764;4.332;2022-11-20T18:39:15;24.23;;;8.45;;
25581;SDS011;13462;50.764;4.332;2022-11-20T18:41:41;28.17;;;7.38;;
25581;SDS011;13462;50.764;4.332;2022-11-20T18:44:27;19.27;;;6.40;;
25581;SDS011;13462;50.764;4.332;2022-11-20T18:47:14;29.35;;;6.97;;
25581;SDS011;13462;50.764;4.332;2022-11-20T18:49:42;29.33;;;11.30;;
25581;SDS011;13462;50.764;4.332;2022-11-20T18:52:10;25.55;;;9.13;;
25581;SDS011;13462;50.764;4.332;2022-11-20T18:54:36;27.92;;;11.75;;
25581;SDS011;13462;50.764;4.332;2022-11-20T18:57:03;24.58;;;7.80;;
25581;SDS011;13462;50.764;4.332;2022-11-20T18:59:28;23.05;;;9.52;;
25581;SDS011;13462;50.764;4.332;2022-11-20T19:01:54;25.98;;;9.32;;
25581;SDS011;13462;50.764;4.332;2022-11-20T19:04:20;27.20;;;7.25;;
25581;SDS011;13462;50.764;4.332;2022-11-20T19:06:46;27.50;;;8.25;;
25581;SDS011;13462;50.764;4.332;2022-11-20T19:09:17;24.90;;;6.18;;
25581;SDS011;13462;50.764;4.332;2022-11-20T19:11:43;20.67;;;6.47;;